Two Dot, MT (59085)

9:58 PM MDT on April 01, 2015 (GMT -0600)
MesoWest | | Change Station
CLOSE
Current Station
Personal Weather Station
Location: Judith Gap, MT
Elevation: 4573 ft
Nearby Weather Stations

Elev 4573 ft 46.69 °N, 109.75 °W | Updated 48 minutes ago

Partly Cloudy
Partly Cloudy
35 °F
Feels Like 24 °F
N
21
Wind Variable Wind from SW
Gusts 26.0 mph

Today
High -- | Low -- °F
--% Chance of Precip.
Yesterday
High -- | Low -- °F
Precip. -- in
7:00 AM 7:48 PM
Waxing Gibbous, 95% visible
Pressure 29.90 in
Visibility 10.0 miles
Clouds Scattered Clouds 10000 ft
Windchill 24 °F
Dew Point 11 °F
Humidity 35%
Rainfall in
Snow Depth Not available.
UV 0 out of 12
Pollen 7.10 out of 12
Air Quality Not available.
Flu Activity Not available.
METAR KLWT 020354Z AUTO 28014KT 10SM SCT100 03/M12 A2987 RMK AO2 SLP125 T00331122

More Conditions Fewer Conditions

Pressure 29.90 in
Visibility 10.0 miles
Clouds Scattered Clouds 10000 ft
Windchill 24 °F
Dew Point 11 °F
Humidity 35%
Rainfall in
Snow Depth Not available.
UV 0 out of 12
Pollen 7.10 out of 12
Air Quality Not available.
Flu Activity Not available.
METAR KLWT 020354Z AUTO 28014KT 10SM SCT100 03/M12 A2987 RMK AO2 SLP125 T00331122

More Conditions Fewer Conditions

10-Day Weather Forecast

Almanac

Astronomy

Apr. 01, 2015 Rise Set
Actual Time
Civil Twilight
Nautical Twilight
Astronomical Twilight
Moon
Length of Visible Light
Length of Day
Tomorrow will be .
, % of the Moon is Illuminated

Today's Extremes

State Highs State Lows

Community

WunderPhotos

Upload Photos

1,810,188 photos uploaded!

WunderBlogs® & News

Nearby

Air Quality

  Air Quality AQ Index Pollutant
Not available.

Snow Depth

Station Depth Elevation

Earthquake Activity

City Distance Mag. Time & Date
Minimum magnitude displayed is 2.5.

Coastal Water Temperatures

Place Temperature

Stations

Nearby Weather Stations

Station Location Temp. Windchill Dew Point Humidity Wind Precip. Elev Updated Type